createdAt,value
2023-02-27T00:00:42.148Z,99.90
2023-02-27T00:03:10.144Z,99.90
2023-02-27T00:05:38.047Z,99.90
2023-02-27T00:08:05.953Z,99.90
2023-02-27T00:10:33.969Z,99.90
2023-02-27T00:13:01.900Z,99.90
2023-02-27T00:15:30.860Z,99.90
2023-02-27T00:18:00.590Z,99.90
2023-02-27T00:20:28.719Z,99.90
2023-02-27T00:22:56.628Z,99.90
2023-02-27T00:25:24.545Z,99.90
2023-02-27T00:27:53.183Z,99.90
2023-02-27T00:30:21.153Z,99.90
2023-02-27T00:32:49.115Z,99.90
2023-02-27T00:35:18.498Z,99.90
2023-02-27T00:37:46.648Z,99.90
2023-02-27T00:40:15.538Z,99.90
2023-02-27T00:42:43.856Z,99.90
2023-02-27T00:45:12.352Z,99.90
2023-02-27T00:47:40.212Z,99.90
2023-02-27T00:50:09.625Z,99.90
2023-02-27T00:52:38.998Z,99.90
2023-02-27T00:55:07.882Z,99.90
2023-02-27T00:57:35.875Z,99.90
2023-02-27T01:00:05.576Z,99.90
2023-02-27T01:02:33.549Z,99.90
2023-02-27T01:05:01.872Z,99.90
2023-02-27T01:07:29.812Z,99.90
2023-02-27T01:09:59.588Z,99.90
2023-02-27T01:12:27.462Z,99.90
2023-02-27T01:14:55.289Z,99.90
2023-02-27T01:17:23.204Z,99.90
2023-02-27T01:19:51.186Z,99.90
2023-02-27T01:22:19.027Z,99.90
2023-02-27T01:24:46.930Z,99.90
2023-02-27T01:27:16.198Z,99.90
2023-02-27T01:29:44.575Z,99.90
2023-02-27T01:32:12.400Z,99.90
2023-02-27T01:34:40.369Z,99.90
2023-02-27T01:37:08.390Z,99.90
2023-02-27T01:39:36.688Z,99.90
2023-02-27T01:42:05.250Z,99.90
2023-02-27T01:45:14.726Z,99.90
2023-02-27T01:47:46.738Z,99.90
2023-02-27T01:50:15.494Z,99.90
2023-02-27T01:52:46.828Z,99.90
2023-02-27T01:55:16.286Z,99.90
2023-02-27T01:57:47.194Z,99.90
2023-02-27T02:00:16.053Z,99.90
2023-02-27T02:02:50.791Z,99.90
2023-02-27T02:05:19.049Z,99.90
2023-02-27T02:07:47.209Z,99.90
2023-02-27T02:10:17.099Z,99.90
2023-02-27T02:12:46.906Z,99.90
2023-02-27T02:15:15.961Z,99.90
2023-02-27T02:17:53.046Z,99.90
2023-02-27T02:21:05.230Z,99.90
2023-02-27T02:24:08.677Z,99.90
2023-02-27T02:26:48.066Z,99.90
2023-02-27T02:29:55.701Z,99.90
2023-02-27T02:32:55.649Z,99.90
2023-02-27T02:35:53.238Z,99.90
2023-02-27T02:38:36.452Z,99.90
2023-02-27T02:41:15.075Z,99.90
2023-02-27T02:43:52.250Z,99.90
2023-02-27T02:46:31.068Z,99.90
2023-02-27T02:49:06.496Z,99.90
2023-02-27T02:51:40.976Z,99.90
2023-02-27T02:54:15.672Z,99.90
2023-02-27T02:56:51.300Z,99.90
2023-02-27T02:59:25.426Z,99.90
2023-02-27T03:01:57.710Z,99.90
2023-02-27T03:04:32.672Z,99.90
2023-02-27T03:07:07.991Z,99.90
2023-02-27T03:09:41.902Z,99.90
2023-02-27T03:12:13.884Z,99.90
2023-02-27T03:14:46.760Z,99.90
2023-02-27T03:17:20.045Z,99.90
2023-02-27T03:19:55.041Z,99.90
2023-02-27T03:22:27.850Z,99.90
2023-02-27T03:25:00.130Z,99.90
2023-02-27T03:27:34.155Z,99.90
2023-02-27T03:30:06.366Z,99.90
2023-02-27T03:32:42.609Z,99.90
2023-02-27T03:35:12.243Z,99.90
2023-02-27T03:37:50.564Z,99.90
2023-02-27T03:40:27.470Z,99.90
2023-02-27T03:43:02.661Z,99.90
2023-02-27T03:45:38.718Z,99.90
2023-02-27T03:48:07.790Z,99.90
2023-02-27T03:50:36.173Z,99.90
2023-02-27T03:53:08.011Z,99.90
2023-02-27T03:55:42.070Z,99.90
2023-02-27T03:58:10.419Z,99.90
2023-02-27T04:00:38.738Z,99.90
2023-02-27T04:03:07.118Z,99.90
2023-02-27T04:05:35.231Z,99.90
2023-02-27T04:08:32.315Z,99.90
2023-02-27T04:11:18.661Z,99.90
2023-02-27T04:13:59.639Z,99.90
2023-02-27T04:16:47.066Z,99.90
2023-02-27T04:19:25.539Z,99.90
2023-02-27T04:22:04.546Z,99.90
2023-02-27T04:24:38.230Z,99.90
2023-02-27T04:27:18.103Z,99.90
2023-02-27T04:29:56.006Z,99.90
2023-02-27T04:32:32.170Z,99.90
2023-02-27T04:35:02.812Z,99.90
2023-02-27T04:37:35.689Z,99.90
2023-02-27T04:40:08.121Z,99.90
2023-02-27T04:42:42.243Z,99.90
2023-02-27T04:45:15.304Z,99.90
2023-02-27T04:47:49.414Z,99.90
2023-02-27T04:50:21.381Z,99.90
2023-02-27T04:52:53.919Z,99.90
2023-02-27T04:55:25.411Z,99.90
2023-02-27T04:58:00.757Z,99.90
2023-02-27T05:00:31.507Z,99.90
2023-02-27T05:03:03.234Z,99.90
2023-02-27T05:05:34.360Z,99.90
2023-02-27T05:08:06.798Z,99.90
2023-02-27T05:10:40.055Z,99.90
2023-02-27T05:13:14.916Z,99.90
2023-02-27T05:15:47.660Z,99.90
2023-02-27T05:18:18.878Z,99.90
2023-02-27T05:21:02.372Z,99.90
2023-02-27T05:23:38.199Z,99.90
2023-02-27T05:26:15.429Z,99.90
2023-02-27T05:28:52.710Z,99.90
2023-02-27T05:31:28.032Z,99.90
2023-02-27T05:34:00.271Z,99.90
2023-02-27T05:36:35.232Z,99.90
2023-02-27T05:39:07.739Z,99.90
2023-02-27T05:41:40.367Z,99.90
2023-02-27T05:44:13.493Z,99.90
2023-02-27T05:46:48.899Z,99.90
2023-02-27T05:49:21.269Z,99.90
2023-02-27T05:51:53.171Z,99.90
2023-02-27T05:54:30.721Z,99.90
2023-02-27T05:57:00.778Z,99.90
2023-02-27T05:59:35.359Z,99.90
2023-02-27T06:02:03.459Z,99.90
2023-02-27T06:04:31.354Z,99.90
2023-02-27T06:06:59.441Z,99.90
2023-02-27T06:09:27.387Z,99.90
2023-02-27T06:11:55.261Z,99.90
2023-02-27T06:14:23.195Z,99.90
2023-02-27T06:16:52.439Z,99.90
2023-02-27T06:19:20.373Z,99.90
2023-02-27T06:21:48.223Z,99.90
2023-02-27T06:24:16.071Z,99.90
2023-02-27T06:26:43.878Z,99.90
2023-02-27T06:29:11.787Z,99.90
2023-02-27T06:31:39.703Z,99.90
2023-02-27T06:34:08.973Z,99.90
2023-02-27T06:36:36.811Z,99.90
2023-02-27T06:39:06.020Z,99.90
2023-02-27T06:41:33.894Z,99.90
2023-02-27T06:44:01.914Z,99.90
2023-02-27T06:46:30.285Z,99.90
2023-02-27T06:48:58.597Z,99.90
2023-02-27T06:51:27.957Z,99.90
2023-02-27T06:53:55.919Z,99.90
2023-02-27T06:56:23.900Z,99.90
2023-02-27T06:58:52.002Z,99.90
2023-02-27T07:01:20.061Z,99.90
2023-02-27T07:03:48.100Z,99.90
2023-02-27T07:06:16.210Z,99.90
2023-02-27T07:09:01.661Z,99.90
2023-02-27T07:11:33.913Z,99.90
2023-02-27T07:14:02.000Z,99.90
2023-02-27T07:16:30.064Z,99.90
2023-02-27T07:18:58.960Z,99.90
2023-02-27T07:21:27.027Z,99.90
2023-02-27T07:23:56.536Z,99.90
2023-02-27T07:26:24.667Z,99.90
2023-02-27T07:28:52.650Z,99.90
2023-02-27T07:31:21.335Z,99.90
2023-02-27T07:33:49.470Z,99.90
2023-02-27T07:36:17.471Z,99.90
2023-02-27T07:38:45.625Z,99.90
2023-02-27T07:41:29.670Z,99.90
2023-02-27T07:43:58.589Z,99.90
2023-02-27T07:46:27.816Z,99.90
2023-02-27T07:48:56.528Z,99.90
2023-02-27T07:51:24.620Z,99.90
2023-02-27T07:53:52.671Z,99.90
2023-02-27T07:56:22.151Z,99.90
2023-02-27T07:58:50.184Z,99.90
2023-02-27T08:01:18.196Z,99.90
2023-02-27T08:03:46.277Z,99.90
2023-02-27T08:06:14.374Z,99.90
2023-02-27T08:08:43.025Z,99.90
2023-02-27T08:11:11.391Z,99.90
2023-02-27T08:14:00.494Z,99.90
2023-02-27T08:16:29.419Z,99.90
2023-02-27T08:18:57.599Z,99.90
2023-02-27T08:21:25.940Z,99.90
2023-02-27T08:23:54.616Z,99.90
2023-02-27T08:26:23.265Z,99.90
2023-02-27T08:28:52.625Z,99.90
2023-02-27T08:31:20.777Z,99.90
2023-02-27T08:33:55.294Z,99.90
2023-02-27T08:36:26.352Z,99.90
2023-02-27T08:38:54.556Z,99.90
2023-02-27T08:41:23.250Z,99.90
2023-02-27T08:43:52.621Z,99.90
2023-02-27T08:46:20.632Z,99.90
2023-02-27T08:48:48.687Z,99.90
2023-02-27T08:51:16.613Z,99.90
2023-02-27T08:53:44.662Z,99.90
2023-02-27T08:56:12.716Z,99.90
2023-02-27T08:58:40.655Z,99.90
2023-02-27T09:01:09.920Z,99.90
2023-02-27T09:03:37.939Z,99.90
2023-02-27T09:06:06.630Z,99.90
2023-02-27T09:08:34.820Z,99.90
2023-02-27T09:11:03.155Z,99.90
2023-02-27T09:13:31.196Z,99.90
2023-02-27T09:15:59.049Z,99.90
2023-02-27T09:18:29.248Z,99.90
2023-02-27T09:20:57.565Z,99.90
2023-02-27T09:23:25.622Z,99.90
2023-02-27T09:25:53.991Z,99.90
2023-02-27T09:28:22.333Z,99.90
2023-02-27T09:30:50.358Z,99.90
2023-02-27T09:33:18.245Z,99.90
2023-02-27T09:35:47.672Z,99.90
2023-02-27T09:38:15.773Z,99.90
2023-02-27T09:40:45.620Z,99.90
2023-02-27T09:43:19.503Z,99.90
2023-02-27T09:45:51.142Z,99.90
2023-02-27T09:48:29.965Z,99.90
2023-02-27T09:51:00.133Z,99.90
2023-02-27T09:53:32.487Z,99.90
2023-02-27T09:56:06.696Z,99.90
2023-02-27T09:58:46.040Z,99.90
2023-02-27T10:01:20.176Z,99.90
2023-02-27T10:04:18.414Z,99.90
2023-02-27T10:06:51.755Z,99.90
2023-02-27T10:09:45.210Z,99.90
2023-02-27T10:12:28.556Z,99.90
2023-02-27T10:15:00.659Z,99.90
2023-02-27T10:17:32.350Z,99.90
2023-02-27T10:20:04.648Z,99.90
2023-02-27T10:22:41.223Z,99.90
2023-02-27T10:25:29.849Z,99.90
2023-02-27T10:28:09.968Z,99.90
2023-02-27T10:30:38.363Z,99.90
2023-02-27T10:33:10.545Z,99.90
2023-02-27T10:35:42.267Z,99.90
2023-02-27T10:38:16.363Z,99.90
2023-02-27T10:40:45.383Z,99.90
2023-02-27T10:43:19.501Z,99.90
2023-02-27T10:45:50.296Z,99.90
2023-02-27T10:48:19.195Z,99.90
2023-02-27T10:50:51.218Z,99.90
2023-02-27T10:53:22.806Z,99.90
2023-02-27T10:56:01.625Z,99.90
2023-02-27T10:58:34.765Z,99.90
2023-02-27T11:01:05.577Z,99.90
2023-02-27T11:03:35.942Z,99.90
2023-02-27T11:06:23.501Z,99.90
2023-02-27T11:09:20.869Z,99.90
2023-02-27T11:11:49.022Z,99.90
2023-02-27T11:14:29.391Z,99.90
2023-02-27T11:16:59.541Z,99.90
2023-02-27T11:19:33.482Z,99.90
2023-02-27T11:22:04.154Z,99.90
2023-02-27T11:24:34.172Z,99.90
2023-02-27T11:27:06.436Z,99.90
2023-02-27T11:29:35.592Z,99.90
2023-02-27T11:32:06.064Z,99.90
2023-02-27T11:34:37.431Z,99.90
2023-02-27T11:37:09.100Z,99.90
2023-02-27T11:39:48.803Z,99.90
2023-02-27T11:42:21.784Z,99.90
2023-02-27T11:44:55.569Z,99.90
2023-02-27T11:47:29.479Z,99.90
2023-02-27T11:50:24.427Z,99.90
2023-02-27T11:52:59.951Z,99.90
2023-02-27T11:55:30.761Z,99.90
2023-02-27T11:58:03.849Z,99.90
2023-02-27T12:00:37.696Z,99.10
2023-02-27T12:03:15.057Z,99.90
2023-02-27T12:05:47.128Z,99.90
2023-02-27T12:08:21.231Z,99.90
2023-02-27T12:11:07.812Z,99.90
2023-02-27T12:13:44.150Z,98.80
2023-02-27T12:16:21.483Z,96.10
2023-02-27T12:18:54.554Z,94.40
2023-02-27T12:21:25.259Z,91.20
2023-02-27T12:23:58.266Z,93.80
2023-02-27T12:26:32.448Z,90.80
2023-02-27T12:29:06.311Z,91.50
2023-02-27T12:31:46.914Z,92.40
2023-02-27T12:34:26.056Z,92.10
2023-02-27T12:36:54.305Z,91.90
2023-02-27T12:39:24.538Z,93.80
2023-02-27T12:42:37.280Z,92.70
2023-02-27T12:45:32.801Z,92.00
2023-02-27T12:48:14.651Z,88.40
2023-02-27T12:50:51.103Z,88.50
2023-02-27T12:53:32.972Z,89.80
2023-02-27T12:56:07.292Z,88.40
2023-02-27T12:58:50.607Z,88.90
2023-02-27T13:01:32.697Z,89.40
2023-02-27T13:04:04.663Z,90.40
2023-02-27T13:06:41.708Z,90.20
2023-02-27T13:09:29.065Z,90.90
2023-02-27T13:12:04.601Z,90.40
2023-02-27T13:14:44.798Z,89.60
2023-02-27T13:17:20.495Z,90.40
2023-02-27T13:19:54.006Z,89.00
2023-02-27T13:22:38.534Z,91.40
2023-02-27T13:25:14.223Z,91.70
2023-02-27T13:27:46.346Z,90.90
2023-02-27T13:30:22.967Z,91.80
2023-02-27T13:33:00.325Z,92.00
2023-02-27T13:35:36.926Z,91.20
2023-02-27T13:38:25.690Z,91.40
2023-02-27T13:40:54.595Z,91.20
2023-02-27T13:43:40.526Z,90.60
2023-02-27T13:46:25.688Z,91.40
2023-02-27T13:48:54.651Z,90.50
2023-02-27T13:51:59.629Z,91.40
2023-02-27T13:54:33.958Z,90.40
2023-02-27T13:57:18.480Z,90.40
2023-02-27T13:59:58.009Z,91.30
2023-02-27T14:02:58.206Z,91.10
2023-02-27T14:05:31.048Z,90.10
2023-02-27T14:08:04.786Z,89.90
2023-02-27T14:10:33.659Z,90.40
2023-02-27T14:13:03.823Z,91.40
2023-02-27T14:15:57.032Z,91.80
2023-02-27T14:18:54.877Z,89.50
2023-02-27T14:21:52.697Z,89.60
2023-02-27T14:24:24.540Z,88.40
2023-02-27T14:26:54.807Z,88.60
2023-02-27T14:29:25.665Z,89.50
2023-02-27T14:31:55.254Z,89.80
2023-02-27T14:34:25.053Z,87.10
2023-02-27T14:36:56.701Z,89.00
2023-02-27T14:39:29.157Z,87.20
2023-02-27T14:42:09.124Z,89.50
2023-02-27T14:44:46.066Z,87.30
2023-02-27T14:47:19.320Z,87.60
2023-02-27T14:49:49.477Z,90.60
2023-02-27T14:52:22.540Z,90.30
2023-02-27T14:54:51.113Z,87.60
2023-02-27T14:57:21.522Z,89.40
2023-02-27T14:59:51.097Z,89.50
2023-02-27T15:02:26.303Z,90.80
2023-02-27T15:05:13.692Z,90.90
2023-02-27T15:07:43.176Z,90.50
2023-02-27T15:10:20.499Z,89.40
2023-02-27T15:12:49.372Z,90.80
2023-02-27T15:15:20.028Z,89.70
2023-02-27T15:17:49.267Z,88.60
2023-02-27T15:20:29.709Z,90.00
2023-02-27T15:22:58.084Z,90.00
2023-02-27T15:25:32.015Z,91.50
2023-02-27T15:28:03.708Z,91.70
2023-02-27T15:30:32.408Z,91.20
2023-02-27T15:33:02.922Z,90.90
2023-02-27T15:35:38.005Z,91.80
2023-02-27T15:38:07.595Z,92.60
2023-02-27T15:40:37.400Z,93.70
2023-02-27T15:43:06.726Z,94.30
2023-02-27T15:45:36.875Z,95.30
2023-02-27T15:48:06.364Z,95.30
2023-02-27T15:50:42.544Z,95.40
2023-02-27T15:53:17.252Z,96.10
2023-02-27T15:55:50.574Z,96.60
2023-02-27T15:58:24.452Z,97.50
2023-02-27T16:01:00.789Z,97.60
2023-02-27T16:03:33.168Z,97.50
2023-02-27T16:06:02.816Z,98.30
2023-02-27T16:08:36.779Z,98.70
2023-02-27T16:11:05.307Z,99.30
2023-02-27T16:13:38.088Z,99.50
2023-02-27T16:16:08.038Z,99.90
2023-02-27T16:18:49.635Z,99.90
2023-02-27T16:21:20.582Z,99.90
2023-02-27T16:23:49.997Z,99.90
2023-02-27T16:26:33.258Z,99.90
2023-02-27T16:29:07.860Z,99.90
2023-02-27T16:31:42.930Z,99.90
2023-02-27T16:34:42.817Z,99.90
2023-02-27T16:37:22.222Z,99.90
2023-02-27T16:39:54.488Z,99.90
2023-02-27T16:42:26.087Z,99.90
2023-02-27T16:44:54.219Z,99.90
2023-02-27T16:47:24.658Z,99.90
2023-02-27T16:49:52.879Z,99.90
2023-02-27T16:52:25.232Z,99.90
2023-02-27T16:54:53.434Z,99.90
2023-02-27T16:57:25.262Z,99.90
2023-02-27T16:59:55.517Z,99.90
2023-02-27T17:02:25.080Z,99.90
2023-02-27T17:04:53.428Z,99.90
2023-02-27T17:07:23.442Z,99.90
2023-02-27T17:09:52.132Z,99.90
2023-02-27T17:12:22.246Z,99.90
2023-02-27T17:14:52.651Z,99.90
2023-02-27T17:17:21.595Z,99.90
2023-02-27T17:19:49.990Z,99.90
2023-02-27T17:22:19.532Z,99.90
2023-02-27T17:24:51.383Z,99.90
2023-02-27T17:27:23.453Z,99.90
2023-02-27T17:29:51.626Z,99.90
2023-02-27T17:32:21.213Z,99.90
2023-02-27T17:34:54.700Z,99.90
2023-02-27T17:37:23.369Z,99.90
2023-02-27T17:39:53.170Z,99.90
2023-02-27T17:42:27.277Z,99.90
2023-02-27T17:44:55.539Z,99.90
2023-02-27T17:47:23.931Z,99.90
2023-02-27T17:49:52.343Z,99.90
2023-02-27T17:52:22.061Z,99.90
2023-02-27T17:54:50.157Z,99.90
2023-02-27T17:57:26.851Z,99.90
2023-02-27T17:59:57.919Z,99.90
2023-02-27T18:02:26.018Z,99.90
2023-02-27T18:04:56.367Z,99.90
2023-02-27T18:07:40.441Z,99.90
2023-02-27T18:10:40.956Z,99.90
2023-02-27T18:13:30.240Z,99.90
2023-02-27T18:16:48.194Z,99.90
2023-02-27T18:22:36.435Z,99.90
2023-02-27T18:25:17.788Z,99.90
2023-02-27T18:27:47.543Z,99.90
2023-02-27T18:30:20.826Z,99.90
2023-02-27T18:32:50.606Z,99.90
2023-02-27T18:35:18.922Z,99.90
2023-02-27T18:37:48.374Z,99.90
2023-02-27T18:40:16.910Z,99.90
2023-02-27T18:42:51.240Z,99.90
2023-02-27T18:45:54.006Z,99.90
2023-02-27T18:48:22.273Z,99.90
2023-02-27T18:50:50.963Z,99.90
2023-02-27T18:53:20.793Z,99.90
2023-02-27T18:55:48.906Z,99.90
2023-02-27T18:58:17.372Z,99.90
2023-02-27T19:00:46.909Z,99.90
2023-02-27T19:03:15.047Z,99.90
2023-02-27T19:05:45.569Z,99.90
2023-02-27T19:08:14.804Z,99.90
2023-02-27T19:10:44.347Z,99.90
2023-02-27T19:13:14.765Z,99.90
2023-02-27T19:15:45.070Z,99.90
2023-02-27T19:18:16.911Z,99.90
2023-02-27T19:20:45.145Z,99.90
2023-02-27T19:23:15.232Z,99.90
2023-02-27T19:25:47.863Z,99.90
2023-02-27T19:28:16.383Z,99.90
2023-02-27T19:30:44.581Z,99.90
2023-02-27T19:33:14.381Z,99.90
2023-02-27T19:35:43.721Z,99.90
2023-02-27T19:38:11.932Z,99.90
2023-02-27T19:40:40.109Z,99.90
2023-02-27T19:43:08.599Z,99.90
2023-02-27T19:45:41.163Z,99.90
2023-02-27T19:48:12.241Z,99.90
2023-02-27T19:50:42.745Z,99.90
2023-02-27T19:53:15.020Z,99.90
2023-02-27T19:55:43.367Z,99.90
2023-02-27T19:58:14.015Z,99.90
2023-02-27T20:00:42.322Z,99.90
2023-02-27T20:03:13.443Z,99.90
2023-02-27T20:05:45.682Z,99.90
2023-02-27T20:08:14.000Z,99.90
2023-02-27T20:10:44.219Z,99.90
2023-02-27T20:13:12.752Z,99.90
2023-02-27T20:15:42.873Z,99.90
2023-02-27T20:18:11.281Z,99.90
2023-02-27T20:20:40.165Z,99.90
2023-02-27T20:23:09.913Z,99.90
2023-02-27T20:25:38.123Z,99.90
2023-02-27T20:28:07.864Z,99.90
2023-02-27T20:30:38.819Z,99.90
2023-02-27T20:33:07.417Z,99.90
2023-02-27T20:35:38.395Z,99.90
2023-02-27T20:38:07.198Z,99.90
2023-02-27T20:40:38.159Z,99.90
2023-02-27T20:43:06.340Z,99.90
2023-02-27T20:45:39.844Z,99.90
2023-02-27T20:48:08.504Z,99.90
2023-02-27T20:50:39.440Z,99.90
2023-02-27T20:53:07.845Z,99.90
2023-02-27T20:55:37.901Z,99.90
2023-02-27T20:58:06.057Z,99.90
2023-02-27T21:00:34.570Z,99.90
2023-02-27T21:03:03.704Z,99.90
2023-02-27T21:05:34.140Z,99.90
2023-02-27T21:08:04.543Z,99.90
2023-02-27T21:10:33.378Z,99.90
2023-02-27T21:13:03.025Z,99.90
2023-02-27T21:15:32.564Z,99.90
2023-02-27T21:18:04.994Z,99.90
2023-02-27T21:20:33.398Z,99.90
2023-02-27T21:23:05.715Z,99.90
2023-02-27T21:25:33.977Z,99.90
2023-02-27T21:28:03.597Z,99.90
2023-02-27T21:30:32.285Z,99.90
2023-02-27T21:33:04.011Z,99.90
2023-02-27T21:35:35.283Z,99.90
2023-02-27T21:38:03.520Z,99.90
2023-02-27T21:40:31.808Z,99.90
2023-02-27T21:43:02.094Z,99.90
2023-02-27T21:45:31.800Z,99.90
2023-02-27T21:48:07.600Z,99.90
2023-02-27T21:50:36.078Z,99.90
2023-02-27T21:53:04.192Z,99.90
2023-02-27T21:55:34.976Z,99.90
2023-02-27T21:58:04.277Z,99.90
2023-02-27T22:00:37.930Z,99.90
2023-02-27T22:03:17.409Z,99.90
2023-02-27T22:05:46.336Z,99.90
2023-02-27T22:08:14.172Z,99.90
2023-02-27T22:10:45.794Z,99.90
2023-02-27T22:13:15.322Z,99.90
2023-02-27T22:15:44.637Z,99.90
2023-02-27T22:18:13.028Z,99.90
2023-02-27T22:20:41.305Z,99.90
2023-02-27T22:23:09.911Z,99.90
2023-02-27T22:25:38.247Z,99.90
2023-02-27T22:28:07.197Z,99.90
2023-02-27T22:30:35.625Z,99.90
2023-02-27T22:33:04.968Z,99.90
2023-02-27T22:35:33.808Z,99.90
2023-02-27T22:38:01.761Z,99.90
2023-02-27T22:40:31.759Z,99.90
2023-02-27T22:42:59.726Z,99.90
2023-02-27T22:45:27.816Z,99.90
2023-02-27T22:47:55.905Z,99.90
2023-02-27T22:50:25.266Z,99.90
2023-02-27T22:52:53.277Z,99.90
2023-02-27T22:55:21.499Z,99.90
2023-02-27T22:57:51.904Z,99.90
2023-02-27T23:00:20.425Z,99.90
2023-02-27T23:02:48.459Z,99.90
2023-02-27T23:05:16.617Z,99.90
2023-02-27T23:07:47.213Z,99.90
2023-02-27T23:10:15.242Z,99.90
2023-02-27T23:12:43.142Z,99.90
2023-02-27T23:15:12.234Z,99.90
2023-02-27T23:17:51.988Z,99.90
2023-02-27T23:20:24.410Z,99.90
2023-02-27T23:22:54.653Z,99.90
2023-02-27T23:25:22.730Z,99.90
2023-02-27T23:27:50.964Z,99.90
2023-02-27T23:30:19.392Z,99.90
2023-02-27T23:32:47.447Z,99.90
2023-02-27T23:35:17.255Z,99.90
2023-02-27T23:37:45.276Z,99.90
2023-02-27T23:40:15.173Z,99.90
2023-02-27T23:42:48.899Z,99.90
2023-02-27T23:45:23.204Z,99.90
2023-02-27T23:47:52.813Z,99.90
2023-02-27T23:50:22.281Z,99.90
2023-02-27T23:52:51.947Z,99.90
2023-02-27T23:55:22.360Z,99.90
2023-02-27T23:57:53.574Z,99.90
